createdAt,value
2023-01-04T00:02:37.219Z,101408.28
2023-01-04T00:05:27.176Z,101408.50
2023-01-04T00:08:15.662Z,101411.09
2023-01-04T00:11:05.333Z,101420.03
2023-01-04T00:13:57.060Z,101418.34
2023-01-04T00:16:45.631Z,101413.16
2023-01-04T00:19:34.328Z,101404.72
2023-01-04T00:22:24.143Z,101411.94
2023-01-04T00:25:12.620Z,101413.47
2023-01-04T00:28:01.409Z,101414.25
2023-01-04T00:30:49.979Z,101388.44
2023-01-04T00:33:38.537Z,101409.47
2023-01-04T00:36:27.710Z,101402.47
2023-01-04T00:39:18.171Z,101397.94
2023-01-04T00:42:06.823Z,101398.94
2023-01-04T00:44:55.453Z,101363.97
2023-01-04T00:47:43.912Z,101391.41
2023-01-04T00:50:32.446Z,101386.34
2023-01-04T00:53:20.927Z,101373.09
2023-01-04T00:56:10.799Z,101376.47
2023-01-04T00:59:00.741Z,101379.03
2023-01-04T01:01:49.497Z,101382.22
2023-01-04T01:04:38.073Z,101383.19
2023-01-04T01:07:26.494Z,101382.47
2023-01-04T01:10:14.965Z,101387.78
2023-01-04T01:13:04.749Z,101383.06
2023-01-04T01:15:53.270Z,101381.94
2023-01-04T01:18:43.790Z,101387.50
2023-01-04T01:21:32.752Z,101383.78
2023-01-04T01:24:21.973Z,101379.09
2023-01-04T01:27:10.455Z,101383.53
2023-01-04T01:30:00.304Z,101393.16
2023-01-04T01:32:48.810Z,101394.00
2023-01-04T01:35:37.726Z,101387.59
2023-01-04T01:38:26.183Z,101387.00
2023-01-04T01:41:19.592Z,101382.88
2023-01-04T01:44:46.691Z,101386.72
2023-01-04T01:47:40.777Z,101383.13
2023-01-04T01:50:32.362Z,101386.03
2023-01-04T01:53:21.649Z,101386.03
2023-01-04T01:56:11.100Z,101365.94
2023-01-04T01:59:00.095Z,101380.25
2023-01-04T02:01:48.759Z,101365.41
2023-01-04T02:04:40.285Z,101374.75
2023-01-04T02:07:29.574Z,101370.78
2023-01-04T02:10:18.474Z,101370.44
2023-01-04T02:13:09.594Z,101359.75
2023-01-04T02:16:07.609Z,101355.56
2023-01-04T02:18:59.484Z,101364.84
2023-01-04T02:22:00.406Z,101367.50
2023-01-04T02:25:00.328Z,101355.44
2023-01-04T02:27:52.506Z,101358.00
2023-01-04T02:31:06.947Z,101354.44
2023-01-04T02:34:01.491Z,101348.41
2023-01-04T02:36:56.492Z,101327.63
2023-01-04T02:39:49.909Z,101338.91
2023-01-04T02:43:03.529Z,101326.94
2023-01-04T02:45:54.655Z,101325.59
2023-01-04T02:49:01.730Z,101307.88
2023-01-04T02:51:50.204Z,101318.44
2023-01-04T02:54:39.090Z,101321.16
2023-01-04T02:57:36.382Z,101322.41
2023-01-04T03:00:36.002Z,101321.78
2023-01-04T03:03:46.321Z,101309.63
2023-01-04T03:06:41.757Z,101338.31
2023-01-04T03:09:33.596Z,101282.81
2023-01-04T03:12:35.423Z,101330.13
2023-01-04T03:15:26.355Z,101324.53
2023-01-04T03:18:18.288Z,101331.25
2023-01-04T03:21:09.275Z,101331.28
2023-01-04T03:24:17.760Z,101327.94
2023-01-04T03:27:24.147Z,101323.47
2023-01-04T03:30:32.233Z,101306.13
2023-01-04T03:33:38.420Z,101302.47
2023-01-04T03:36:37.663Z,101292.81
2023-01-04T03:39:52.185Z,101292.00
2023-01-04T03:43:03.008Z,101290.72
2023-01-04T03:46:13.936Z,101304.44
2023-01-04T03:49:06.956Z,101291.41
2023-01-04T03:51:58.724Z,101295.34
2023-01-04T03:54:50.017Z,101291.00
2023-01-04T03:57:38.513Z,101285.69
2023-01-04T04:00:27.202Z,101257.28
2023-01-04T04:03:15.673Z,101262.16
2023-01-04T04:06:22.128Z,101263.84
2023-01-04T04:09:10.562Z,101263.00
2023-01-04T04:12:00.418Z,101256.69
2023-01-04T04:14:48.862Z,101245.91
2023-01-04T04:17:37.383Z,101236.78
2023-01-04T04:20:25.861Z,101237.50
2023-01-04T04:23:14.337Z,101238.72
2023-01-04T04:26:02.784Z,101236.34
2023-01-04T04:28:52.595Z,101227.81
2023-01-04T04:31:41.091Z,101229.66
2023-01-04T04:34:29.602Z,101224.09
2023-01-04T04:37:18.038Z,101219.22
2023-01-04T04:40:07.247Z,101205.66
2023-01-04T04:42:55.311Z,101223.88
2023-01-04T04:45:45.082Z,101209.88
2023-01-04T04:48:33.628Z,101207.47
2023-01-04T04:51:22.069Z,101189.56
2023-01-04T04:54:12.011Z,101216.09
2023-01-04T04:57:00.458Z,101213.75
2023-01-04T04:59:48.885Z,101211.06
2023-01-04T05:02:38.817Z,101204.31
2023-01-04T05:05:27.392Z,101211.03
2023-01-04T05:08:15.862Z,101206.56
2023-01-04T05:11:06.460Z,101202.94
2023-01-04T05:13:53.905Z,101201.41
2023-01-04T05:16:42.600Z,101204.72
2023-01-04T05:19:32.414Z,101197.53
2023-01-04T05:22:20.838Z,101195.28
2023-01-04T05:25:11.639Z,101202.81
2023-01-04T05:28:00.363Z,101204.06
2023-01-04T05:30:53.433Z,101207.69
2023-01-04T05:33:42.000Z,101206.44
2023-01-04T05:36:31.815Z,101199.53
2023-01-04T05:39:20.284Z,101199.53
2023-01-04T05:42:27.880Z,101196.56
2023-01-04T05:45:17.330Z,101184.19
2023-01-04T05:48:06.121Z,101179.75
2023-01-04T05:50:54.685Z,101191.75
2023-01-04T05:53:44.458Z,101179.78
2023-01-04T05:56:32.909Z,101191.50
2023-01-04T05:59:21.387Z,101183.34
2023-01-04T06:02:15.747Z,101176.81
2023-01-04T06:05:05.192Z,101180.16
2023-01-04T06:07:53.904Z,101191.63
2023-01-04T06:10:43.753Z,101186.13
2023-01-04T06:13:32.235Z,101179.47
2023-01-04T06:16:20.694Z,101168.28
2023-01-04T06:19:09.230Z,101171.09
2023-01-04T06:21:57.733Z,101169.13
2023-01-04T06:24:46.220Z,101174.75
2023-01-04T06:27:36.009Z,101167.47
2023-01-04T06:30:24.533Z,101166.50
2023-01-04T06:33:13.036Z,101169.72
2023-01-04T06:36:01.844Z,101137.56
2023-01-04T06:38:50.554Z,101152.38
2023-01-04T06:41:39.214Z,101156.59
2023-01-04T06:44:29.004Z,101150.44
2023-01-04T06:47:17.469Z,101163.16
2023-01-04T06:50:06.300Z,101148.19
2023-01-04T06:52:54.757Z,101153.50
2023-01-04T06:55:44.692Z,101150.28
2023-01-04T06:58:33.135Z,101140.09
2023-01-04T07:01:23.012Z,101126.81
2023-01-04T07:04:11.623Z,101138.81
2023-01-04T07:07:00.122Z,101131.84
2023-01-04T07:09:48.559Z,101139.41
2023-01-04T07:12:37.759Z,101123.31
2023-01-04T07:15:37.977Z,101134.09
2023-01-04T07:18:30.136Z,101116.34
2023-01-04T07:21:18.600Z,101123.06
2023-01-04T07:24:07.087Z,101115.75
2023-01-04T07:26:55.759Z,101115.47
2023-01-04T07:29:44.332Z,101107.66
2023-01-04T07:32:32.816Z,101106.97
2023-01-04T07:35:23.257Z,101047.31
2023-01-04T07:38:11.683Z,101100.09
2023-01-04T07:41:00.137Z,101086.59
2023-01-04T07:43:48.575Z,101084.66
2023-01-04T07:46:37.366Z,101090.72
2023-01-04T07:49:25.902Z,101075.63
2023-01-04T07:52:15.809Z,101081.47
2023-01-04T07:55:04.292Z,101078.34
2023-01-04T07:57:54.098Z,101074.56
2023-01-04T08:00:42.564Z,101084.19
2023-01-04T08:03:31.004Z,101083.38
2023-01-04T08:06:21.164Z,101073.28
2023-01-04T08:09:12.163Z,101090.25
2023-01-04T08:12:01.083Z,101076.94
2023-01-04T08:14:49.591Z,101071.09
2023-01-04T08:17:38.075Z,101043.00
2023-01-04T08:20:26.629Z,101061.06
2023-01-04T08:23:15.223Z,101073.41
2023-01-04T08:26:06.903Z,101065.88
2023-01-04T08:28:56.761Z,101049.66
2023-01-04T08:31:45.350Z,100934.78
2023-01-04T08:34:33.852Z,101056.16
2023-01-04T08:37:22.303Z,101051.44
2023-01-04T08:40:11.677Z,101041.41
2023-01-04T08:43:01.545Z,101040.75
2023-01-04T08:45:50.050Z,101051.09
2023-01-04T08:48:38.935Z,101062.31
2023-01-04T08:51:27.410Z,101049.56
2023-01-04T08:54:15.939Z,101052.41
2023-01-04T08:57:04.507Z,101039.66
2023-01-04T08:59:54.389Z,101036.69
2023-01-04T09:02:42.969Z,101032.81
2023-01-04T09:05:33.124Z,101042.03
2023-01-04T09:08:21.647Z,101048.31
2023-01-04T09:11:13.413Z,101045.44
2023-01-04T09:14:07.770Z,100941.78
2023-01-04T09:16:58.559Z,101042.63
2023-01-04T09:19:46.992Z,101031.44
2023-01-04T09:22:35.555Z,101045.41
2023-01-04T09:25:24.316Z,101043.63
2023-01-04T09:28:12.821Z,101043.38
2023-01-04T09:31:06.219Z,101056.78
2023-01-04T09:37:04.925Z,101042.06
2023-01-04T09:39:53.468Z,101036.47
2023-01-04T09:42:42.646Z,101056.00
2023-01-04T09:45:31.241Z,101048.25
2023-01-04T09:48:25.462Z,101036.56
2023-01-04T09:51:17.875Z,101034.84
2023-01-04T09:54:12.239Z,101037.63
2023-01-04T09:57:00.800Z,101032.00
2023-01-04T09:59:49.761Z,101034.16
2023-01-04T10:02:41.870Z,101039.69
2023-01-04T10:05:33.014Z,101029.19
2023-01-04T10:08:22.991Z,101037.81
2023-01-04T10:11:20.260Z,101011.72
2023-01-04T10:14:23.821Z,101013.63
2023-01-04T10:17:44.410Z,101013.09
2023-01-04T10:21:28.282Z,100997.94
2023-01-04T10:24:30.451Z,100989.72
2023-01-04T10:27:26.079Z,100988.25
2023-01-04T10:30:25.574Z,100959.13
2023-01-04T10:33:15.855Z,100979.66
2023-01-04T10:36:04.468Z,100970.03
2023-01-04T10:38:58.500Z,100955.03
2023-01-04T10:41:54.583Z,100954.56
2023-01-04T10:44:53.069Z,100947.47
2023-01-04T10:47:48.731Z,100952.19
2023-01-04T10:50:41.923Z,100933.03
2023-01-04T10:53:35.981Z,100940.34
2023-01-04T10:56:27.829Z,100945.72
2023-01-04T10:59:21.799Z,100951.44
2023-01-04T11:02:18.702Z,100875.75
2023-01-04T11:05:13.279Z,100936.94
2023-01-04T11:08:03.798Z,100929.63
2023-01-04T11:10:55.129Z,100930.91
2023-01-04T11:13:43.714Z,100938.41
2023-01-04T11:16:33.828Z,100937.84
2023-01-04T11:19:22.471Z,100948.22
2023-01-04T11:22:16.549Z,100939.06
2023-01-04T11:25:34.334Z,100960.00
2023-01-04T11:28:19.735Z,100949.88
2023-01-04T11:31:17.723Z,100928.53
2023-01-04T11:34:07.751Z,100935.56
2023-01-04T11:36:56.293Z,100914.94
2023-01-04T11:39:44.837Z,100930.75
2023-01-04T11:42:33.347Z,100928.97
2023-01-04T11:45:24.405Z,100924.28
2023-01-04T11:48:16.080Z,100928.91
2023-01-04T11:51:10.145Z,100935.28
2023-01-04T11:54:04.964Z,100936.56
2023-01-04T11:57:11.377Z,100933.03
2023-01-04T12:00:14.500Z,100920.00
2023-01-04T12:03:13.204Z,100916.13
2023-01-04T12:06:01.710Z,100928.59
2023-01-04T12:08:51.561Z,100921.47
2023-01-04T12:11:43.691Z,100911.38
2023-01-04T12:14:35.950Z,100893.34
2023-01-04T12:17:26.871Z,100908.44
2023-01-04T12:20:20.040Z,100890.66
2023-01-04T12:23:10.121Z,100898.97
2023-01-04T12:25:59.978Z,100891.63
2023-01-04T12:28:50.341Z,100887.69
2023-01-04T12:31:38.920Z,100885.44
2023-01-04T12:34:41.235Z,100869.13
2023-01-04T12:37:49.424Z,100866.06
2023-01-04T12:40:54.180Z,100864.88
2023-01-04T12:43:28.349Z,100849.41
2023-01-04T12:46:51.545Z,100848.44
2023-01-04T12:49:45.848Z,100847.88
2023-01-04T12:52:48.463Z,100842.69
2023-01-04T12:55:56.552Z,100843.09
2023-01-04T13:02:18.311Z,100833.94
2023-01-04T13:04:46.843Z,100826.06
2023-01-04T13:07:19.422Z,100830.59
2023-01-04T13:09:53.028Z,100842.00
2023-01-04T13:12:36.611Z,100838.75
2023-01-04T13:15:14.343Z,100849.09
2023-01-04T13:17:46.072Z,100838.66
2023-01-04T13:20:17.118Z,100835.22
2023-01-04T13:22:50.554Z,100835.31
2023-01-04T13:25:20.199Z,100840.47
2023-01-04T13:27:59.151Z,100822.50
2023-01-04T13:30:37.758Z,100816.69
2023-01-04T13:33:27.803Z,100816.94
2023-01-04T13:36:04.424Z,100820.47
2023-01-04T13:38:35.535Z,100796.00
2023-01-04T13:41:05.286Z,100797.13
2023-01-04T13:43:57.357Z,100807.88
2023-01-04T13:46:27.962Z,100807.28
2023-01-04T13:49:01.446Z,100801.16
2023-01-04T13:51:36.979Z,100806.72
2023-01-04T13:54:07.405Z,100758.38
2023-01-04T13:56:36.486Z,100787.66
2023-01-04T13:59:04.660Z,100768.00
2023-01-04T14:01:36.620Z,100767.63
2023-01-04T14:04:06.144Z,100778.19
2023-01-04T14:06:35.690Z,100783.34
2023-01-04T14:09:06.709Z,100763.13
2023-01-04T14:11:54.312Z,100768.09
2023-01-04T14:14:45.692Z,100761.00
2023-01-04T14:17:18.267Z,100769.31
2023-01-04T14:19:49.305Z,100761.25
2023-01-04T14:22:43.735Z,100741.50
2023-01-04T14:25:48.463Z,100759.97
2023-01-04T14:28:41.860Z,100765.31
2023-01-04T14:31:25.072Z,100757.06
2023-01-04T14:33:55.130Z,100758.38
2023-01-04T14:36:26.869Z,100764.38
2023-01-04T14:38:59.806Z,100758.88
2023-01-04T14:41:31.436Z,100759.34
2023-01-04T14:44:14.233Z,100764.31
2023-01-04T14:46:43.862Z,100756.50
2023-01-04T14:49:13.546Z,100761.69
2023-01-04T14:51:44.122Z,100747.66
2023-01-04T14:54:14.532Z,100755.66
2023-01-04T14:56:45.913Z,100744.00
2023-01-04T14:59:14.234Z,100756.72
2023-01-04T15:01:42.523Z,100739.03
2023-01-04T15:04:10.838Z,100742.88
2023-01-04T15:06:48.237Z,100755.81
2023-01-04T15:09:16.921Z,100710.19
2023-01-04T15:11:45.140Z,100756.31
2023-01-04T15:14:13.459Z,100753.00
2023-01-04T15:16:41.717Z,100716.88
2023-01-04T15:19:10.038Z,100758.81
2023-01-04T15:21:41.185Z,100751.09
2023-01-04T15:24:11.479Z,100756.75
2023-01-04T15:26:40.236Z,100720.03
2023-01-04T15:29:09.679Z,100718.69
2023-01-04T15:31:40.489Z,100758.56
2023-01-04T15:34:10.159Z,100757.53
2023-01-04T15:36:40.794Z,100729.06
2023-01-04T15:39:14.101Z,100759.84
2023-01-04T15:42:00.182Z,100739.56
2023-01-04T15:44:28.810Z,100704.69
2023-01-04T15:46:59.260Z,100726.72
2023-01-04T15:49:30.339Z,100745.81
2023-01-04T15:51:58.586Z,100732.31
2023-01-04T15:54:46.715Z,100726.75
2023-01-04T15:57:40.053Z,100728.41
2023-01-04T16:00:30.480Z,100722.41
2023-01-04T16:03:19.163Z,100736.25
2023-01-04T16:06:08.995Z,100732.47
2023-01-04T16:08:58.918Z,100749.47
2023-01-04T16:12:06.194Z,100747.56
2023-01-04T16:14:54.732Z,100730.41
2023-01-04T16:17:43.412Z,100735.00
2023-01-04T16:20:31.864Z,100727.16
2023-01-04T16:23:20.339Z,100727.59
2023-01-04T16:26:10.150Z,100721.59
2023-01-04T16:29:00.821Z,100728.31
2023-01-04T16:31:49.401Z,100717.88
2023-01-04T16:34:38.068Z,100705.94
2023-01-04T16:37:28.379Z,100725.50
2023-01-04T16:40:16.942Z,100735.41
2023-01-04T16:43:07.033Z,100730.72
2023-01-04T16:46:21.741Z,100726.81
2023-01-04T16:49:12.636Z,100725.94
2023-01-04T16:52:01.192Z,100716.59
2023-01-04T16:54:49.959Z,100718.91
2023-01-04T16:57:38.451Z,100713.09
2023-01-04T17:00:26.944Z,100725.22
2023-01-04T17:03:16.843Z,100731.19
2023-01-04T17:06:09.810Z,100718.22
2023-01-04T17:08:59.244Z,100718.16
2023-01-04T17:12:46.183Z,100705.75
2023-01-04T17:18:20.745Z,100724.50
2023-01-04T17:21:33.213Z,100717.84
2023-01-04T17:24:21.727Z,100723.97
2023-01-04T17:27:10.815Z,100723.16
2023-01-04T17:29:59.352Z,100707.84
2023-01-04T17:32:47.839Z,100716.31
2023-01-04T17:35:38.714Z,100698.25
2023-01-04T17:38:27.200Z,100698.50
2023-01-04T17:41:17.525Z,100684.94
2023-01-04T17:44:07.347Z,100713.59
2023-01-04T17:46:56.056Z,100697.59
2023-01-04T17:49:45.732Z,100712.56
2023-01-04T17:52:35.623Z,100688.03
2023-01-04T17:55:24.101Z,100707.72
2023-01-04T17:58:13.243Z,100701.47
2023-01-04T18:01:09.832Z,100708.78
2023-01-04T18:03:59.481Z,100706.84
2023-01-04T18:06:47.991Z,100689.81
2023-01-04T18:09:37.912Z,100681.81
2023-01-04T18:12:26.544Z,100674.34
2023-01-04T18:15:15.054Z,100701.44
2023-01-04T18:18:03.601Z,100689.25
2023-01-04T18:20:52.577Z,100702.56
2023-01-04T18:23:44.029Z,100696.94
2023-01-04T18:27:10.654Z,100699.22
2023-01-04T18:29:45.585Z,100703.84
2023-01-04T18:32:34.056Z,100709.47
2023-01-04T18:35:22.540Z,100700.53
2023-01-04T18:38:12.549Z,100710.38
2023-01-04T18:41:01.054Z,100709.09
2023-01-04T18:44:05.755Z,100705.34
2023-01-04T18:47:01.131Z,100710.31
2023-01-04T18:49:50.077Z,100716.81
2023-01-04T18:52:38.771Z,100712.47
2023-01-04T18:55:27.258Z,100715.59
2023-01-04T18:58:15.751Z,100712.41
2023-01-04T19:01:08.292Z,100720.44
2023-01-04T19:03:57.049Z,100715.31
2023-01-04T19:06:45.641Z,100715.09
2023-01-04T19:09:34.280Z,100689.03
2023-01-04T19:12:22.907Z,100698.34
2023-01-04T19:15:12.348Z,100688.19
2023-01-04T19:18:02.418Z,100675.28
2023-01-04T19:20:50.933Z,100707.03
2023-01-04T19:23:39.507Z,100694.25
2023-01-04T19:26:28.025Z,100699.38
2023-01-04T19:29:18.836Z,100702.94
2023-01-04T19:32:07.601Z,100706.63
2023-01-04T19:34:57.579Z,100697.81
2023-01-04T19:37:46.155Z,100706.38
2023-01-04T19:40:34.660Z,100716.91
2023-01-04T19:43:23.115Z,100715.25
2023-01-04T19:46:12.536Z,100716.16
2023-01-04T19:49:01.256Z,100681.31
2023-01-04T19:51:51.730Z,100722.72
2023-01-04T19:54:40.463Z,100725.66
2023-01-04T19:57:30.000Z,100719.91
2023-01-04T20:00:19.587Z,100723.88
2023-01-04T20:03:08.565Z,100594.59
2023-01-04T20:06:02.642Z,100734.91
2023-01-04T20:08:52.672Z,100729.22
2023-01-04T20:11:41.204Z,100719.34
2023-01-04T20:14:30.719Z,100720.81
2023-01-04T20:17:19.185Z,100712.16
2023-01-04T20:20:07.986Z,100691.91
2023-01-04T20:22:56.422Z,100695.06
2023-01-04T20:25:48.312Z,100704.41
2023-01-04T20:28:38.429Z,100712.94
2023-01-04T20:31:26.927Z,100709.78
2023-01-04T20:34:15.513Z,100710.91
2023-01-04T20:37:04.100Z,100715.88
2023-01-04T20:39:52.698Z,100721.47
2023-01-04T20:43:00.197Z,100730.56
2023-01-04T20:45:49.990Z,100739.50
2023-01-04T20:48:38.762Z,100739.03
2023-01-04T20:51:29.622Z,100734.94
2023-01-04T20:54:18.123Z,100727.28
2023-01-04T20:57:06.723Z,100735.56
2023-01-04T20:59:56.653Z,100741.00
2023-01-04T21:02:45.395Z,100745.72
2023-01-04T21:05:37.870Z,100749.69
2023-01-04T21:08:26.335Z,100736.22
2023-01-04T21:11:15.292Z,100725.25
2023-01-04T21:14:03.987Z,100730.25
2023-01-04T21:16:53.881Z,100731.06
2023-01-04T21:19:42.380Z,100731.09
2023-01-04T21:22:30.874Z,100725.13
2023-01-04T21:25:19.443Z,100731.75
2023-01-04T21:28:08.118Z,100706.72
2023-01-04T21:30:56.620Z,100715.84
2023-01-04T21:33:46.917Z,100730.53
2023-01-04T21:36:35.421Z,100721.25
2023-01-04T21:39:23.889Z,100722.47
2023-01-04T21:42:12.386Z,100712.50
2023-01-04T21:45:00.855Z,100706.31
2023-01-04T21:47:49.413Z,100703.84
2023-01-04T21:50:39.201Z,100697.47
2023-01-04T21:53:29.113Z,100690.63
2023-01-04T21:56:19.405Z,100679.25
2023-01-04T21:59:07.824Z,100671.81
2023-01-04T22:01:56.375Z,100677.34
2023-01-04T22:04:45.273Z,100667.47
2023-01-04T22:07:35.241Z,100625.81
2023-01-04T22:10:23.761Z,100654.63
2023-01-04T22:13:12.280Z,100652.94
2023-01-04T22:16:00.840Z,100659.38
2023-01-04T22:18:49.724Z,100667.47
2023-01-04T22:21:38.224Z,100655.69
2023-01-04T22:24:31.475Z,100651.94
2023-01-04T22:27:24.034Z,100655.66
2023-01-04T22:30:13.360Z,100635.78
2023-01-04T22:33:01.840Z,100644.50
2023-01-04T22:35:50.842Z,100611.78
2023-01-04T22:38:40.329Z,100629.59
2023-01-04T22:41:30.185Z,100635.22
2023-01-04T22:44:18.638Z,100626.94
2023-01-04T22:47:07.331Z,100590.91
2023-01-04T22:49:55.811Z,100624.47
2023-01-04T22:52:50.677Z,100629.44
2023-01-04T22:56:09.273Z,100625.50
2023-01-04T22:58:54.330Z,100607.66
2023-01-04T23:01:43.891Z,100632.72
2023-01-04T23:04:32.344Z,100641.63
2023-01-04T23:07:20.938Z,100653.22
2023-01-04T23:10:11.269Z,100655.25
2023-01-04T23:12:59.717Z,100643.84
2023-01-04T23:15:49.595Z,100645.28
2023-01-04T23:18:38.692Z,100648.56
2023-01-04T23:21:27.190Z,100624.91
2023-01-04T23:24:16.269Z,100635.72
2023-01-04T23:27:04.843Z,100635.66
2023-01-04T23:29:53.379Z,100633.97
2023-01-04T23:32:43.906Z,100625.06
2023-01-04T23:35:32.376Z,100630.88
2023-01-04T23:38:20.792Z,100628.78
2023-01-04T23:41:09.587Z,100643.06
2023-01-04T23:43:58.042Z,100626.16
2023-01-04T23:46:47.335Z,100626.50
2023-01-04T23:49:39.575Z,100628.03
2023-01-04T23:52:28.033Z,100619.56
2023-01-04T23:55:16.554Z,100619.56
2023-01-04T23:58:04.969Z,100620.97
